sensor_id;sensor_type;location;lat;lon;timestamp;P1;durP1;ratioP1;P2;durP2;ratioP2
44366;SDS011;30086;57.660;12.000;2024-02-14T00:00:00;32.33;;;5.47;;
44366;SDS011;30086;57.660;12.000;2024-02-14T00:02:27;28.50;;;5.60;;
44366;SDS011;30086;57.660;12.000;2024-02-14T00:04:53;41.00;;;5.97;;
44366;SDS011;30086;57.660;12.000;2024-02-14T00:07:20;29.27;;;4.78;;
44366;SDS011;30086;57.660;12.000;2024-02-14T00:09:46;34.67;;;6.28;;
44366;SDS011;30086;57.660;12.000;2024-02-14T00:12:12;24.40;;;5.57;;
44366;SDS011;30086;57.660;12.000;2024-02-14T00:14:38;38.20;;;6.03;;
44366;SDS011;30086;57.660;12.000;2024-02-14T00:17:04;32.50;;;4.90;;
44366;SDS011;30086;57.660;12.000;2024-02-14T00:19:32;41.22;;;5.55;;
44366;SDS011;30086;57.660;12.000;2024-02-14T00:21:58;32.67;;;5.32;;
44366;SDS011;30086;57.660;12.000;2024-02-14T00:24:25;26.80;;;5.20;;
44366;SDS011;30086;57.660;12.000;2024-02-14T00:26:54;29.33;;;5.05;;
44366;SDS011;30086;57.660;12.000;2024-02-14T00:29:24;26.88;;;4.85;;
44366;SDS011;30086;57.660;12.000;2024-02-14T00:31:53;30.23;;;4.38;;
44366;SDS011;30086;57.660;12.000;2024-02-14T00:34:19;34.35;;;6.20;;
44366;SDS011;30086;57.660;12.000;2024-02-14T00:36:46;27.40;;;4.53;;
44366;SDS011;30086;57.660;12.000;2024-02-14T00:39:12;30.30;;;5.72;;
44366;SDS011;30086;57.660;12.000;2024-02-14T00:41:39;34.78;;;5.20;;
44366;SDS011;30086;57.660;12.000;2024-02-14T00:44:16;28.42;;;5.00;;
44366;SDS011;30086;57.660;12.000;2024-02-14T00:46:43;35.03;;;4.90;;
44366;SDS011;30086;57.660;12.000;2024-02-14T00:49:10;28.83;;;5.32;;
44366;SDS011;30086;57.660;12.000;2024-02-14T00:51:39;31.70;;;5.82;;
44366;SDS011;30086;57.660;12.000;2024-02-14T00:54:14;35.67;;;5.07;;
44366;SDS011;30086;57.660;12.000;2024-02-14T00:56:42;37.40;;;5.93;;
44366;SDS011;30086;57.660;12.000;2024-02-14T00:59:08;36.35;;;7.43;;
44366;SDS011;30086;57.660;12.000;2024-02-14T01:01:34;37.88;;;5.95;;
44366;SDS011;30086;57.660;12.000;2024-02-14T01:04:02;24.65;;;5.03;;
44366;SDS011;30086;57.660;12.000;2024-02-14T01:06:51;28.05;;;4.80;;
44366;SDS011;30086;57.660;12.000;2024-02-14T01:09:18;32.90;;;5.95;;
44366;SDS011;30086;57.660;12.000;2024-02-14T01:11:45;28.05;;;5.60;;
44366;SDS011;30086;57.660;12.000;2024-02-14T01:14:14;38.55;;;5.25;;
44366;SDS011;30086;57.660;12.000;2024-02-14T01:16:45;25.83;;;5.30;;
44366;SDS011;30086;57.660;12.000;2024-02-14T01:19:11;26.75;;;5.28;;
44366;SDS011;30086;57.660;12.000;2024-02-14T01:21:37;41.65;;;5.18;;
44366;SDS011;30086;57.660;12.000;2024-02-14T01:24:04;37.38;;;5.20;;
44366;SDS011;30086;57.660;12.000;2024-02-14T01:26:35;26.52;;;5.60;;
44366;SDS011;30086;57.660;12.000;2024-02-14T01:29:03;29.45;;;5.20;;
44366;SDS011;30086;57.660;12.000;2024-02-14T01:31:32;27.40;;;4.75;;
44366;SDS011;30086;57.660;12.000;2024-02-14T01:33:59;31.85;;;5.63;;
44366;SDS011;30086;57.660;12.000;2024-02-14T01:36:30;26.45;;;5.55;;
44366;SDS011;30086;57.660;12.000;2024-02-14T01:39:16;35.78;;;5.53;;
44366;SDS011;30086;57.660;12.000;2024-02-14T01:41:45;34.63;;;5.18;;
44366;SDS011;30086;57.660;12.000;2024-02-14T01:44:16;32.15;;;5.25;;
44366;SDS011;30086;57.660;12.000;2024-02-14T01:46:52;38.72;;;6.43;;
44366;SDS011;30086;57.660;12.000;2024-02-14T01:49:18;32.80;;;4.32;;
44366;SDS011;30086;57.660;12.000;2024-02-14T01:51:45;29.23;;;4.97;;
44366;SDS011;30086;57.660;12.000;2024-02-14T01:54:12;26.85;;;5.05;;
44366;SDS011;30086;57.660;12.000;2024-02-14T01:56:39;33.50;;;4.95;;
44366;SDS011;30086;57.660;12.000;2024-02-14T01:59:06;27.90;;;5.03;;
44366;SDS011;30086;57.660;12.000;2024-02-14T02:01:35;23.88;;;4.63;;
44366;SDS011;30086;57.660;12.000;2024-02-14T02:04:01;29.90;;;4.43;;
44366;SDS011;30086;57.660;12.000;2024-02-14T02:06:28;26.73;;;5.85;;
44366;SDS011;30086;57.660;12.000;2024-02-14T02:08:55;26.13;;;5.35;;
44366;SDS011;30086;57.660;12.000;2024-02-14T02:11:21;28.25;;;4.93;;
44366;SDS011;30086;57.660;12.000;2024-02-14T02:13:47;30.67;;;5.25;;
44366;SDS011;30086;57.660;12.000;2024-02-14T02:18:45;34.58;;;5.28;;
44366;SDS011;30086;57.660;12.000;2024-02-14T02:21:11;18.80;;;4.32;;
44366;SDS011;30086;57.660;12.000;2024-02-14T02:23:39;21.73;;;4.35;;
44366;SDS011;30086;57.660;12.000;2024-02-14T02:26:25;26.45;;;4.45;;
44366;SDS011;30086;57.660;12.000;2024-02-14T02:28:51;36.10;;;4.72;;
44366;SDS011;30086;57.660;12.000;2024-02-14T02:31:18;24.85;;;4.32;;
44366;SDS011;30086;57.660;12.000;2024-02-14T02:33:44;25.92;;;4.55;;
44366;SDS011;30086;57.660;12.000;2024-02-14T02:36:10;27.17;;;5.03;;
44366;SDS011;30086;57.660;12.000;2024-02-14T02:38:38;22.30;;;3.42;;
44366;SDS011;30086;57.660;12.000;2024-02-14T02:41:04;24.55;;;4.40;;
44366;SDS011;30086;57.660;12.000;2024-02-14T02:43:33;35.15;;;5.07;;
44366;SDS011;30086;57.660;12.000;2024-02-14T02:46:09;27.00;;;4.30;;
44366;SDS011;30086;57.660;12.000;2024-02-14T02:48:36;34.63;;;4.70;;
44366;SDS011;30086;57.660;12.000;2024-02-14T02:51:03;23.80;;;5.07;;
44366;SDS011;30086;57.660;12.000;2024-02-14T02:53:29;28.83;;;4.13;;
44366;SDS011;30086;57.660;12.000;2024-02-14T02:55:55;19.83;;;3.88;;
44366;SDS011;30086;57.660;12.000;2024-02-14T02:58:24;18.88;;;4.78;;
44366;SDS011;30086;57.660;12.000;2024-02-14T03:00:52;23.95;;;3.95;;
44366;SDS011;30086;57.660;12.000;2024-02-14T03:03:20;20.52;;;3.85;;
44366;SDS011;30086;57.660;12.000;2024-02-14T03:05:50;30.13;;;4.53;;
44366;SDS011;30086;57.660;12.000;2024-02-14T03:08:18;20.20;;;4.43;;
44366;SDS011;30086;57.660;12.000;2024-02-14T03:10:46;20.77;;;4.65;;
44366;SDS011;30086;57.660;12.000;2024-02-14T03:13:15;17.27;;;3.70;;
44366;SDS011;30086;57.660;12.000;2024-02-14T03:15:42;23.42;;;3.75;;
44366;SDS011;30086;57.660;12.000;2024-02-14T03:18:11;15.77;;;3.92;;
44366;SDS011;30086;57.660;12.000;2024-02-14T03:20:39;24.30;;;4.93;;
44366;SDS011;30086;57.660;12.000;2024-02-14T03:23:06;31.15;;;4.72;;
44366;SDS011;30086;57.660;12.000;2024-02-14T03:25:32;24.83;;;4.07;;
44366;SDS011;30086;57.660;12.000;2024-02-14T03:28:01;21.25;;;4.70;;
44366;SDS011;30086;57.660;12.000;2024-02-14T03:30:34;14.65;;;3.78;;
44366;SDS011;30086;57.660;12.000;2024-02-14T03:33:00;20.77;;;4.20;;
44366;SDS011;30086;57.660;12.000;2024-02-14T03:35:32;19.95;;;4.15;;
44366;SDS011;30086;57.660;12.000;2024-02-14T03:38:07;20.05;;;4.22;;
44366;SDS011;30086;57.660;12.000;2024-02-14T03:40:34;23.73;;;4.43;;
44366;SDS011;30086;57.660;12.000;2024-02-14T03:43:10;18.63;;;3.95;;
44366;SDS011;30086;57.660;12.000;2024-02-14T03:45:36;18.48;;;4.07;;
44366;SDS011;30086;57.660;12.000;2024-02-14T03:48:04;27.58;;;4.63;;
44366;SDS011;30086;57.660;12.000;2024-02-14T03:50:30;17.92;;;4.65;;
44366;SDS011;30086;57.660;12.000;2024-02-14T03:52:57;18.67;;;4.25;;
44366;SDS011;30086;57.660;12.000;2024-02-14T03:55:30;18.25;;;3.47;;
44366;SDS011;30086;57.660;12.000;2024-02-14T03:57:56;19.95;;;4.40;;
44366;SDS011;30086;57.660;12.000;2024-02-14T04:00:22;18.10;;;4.30;;
44366;SDS011;30086;57.660;12.000;2024-02-14T04:02:48;13.40;;;4.03;;
44366;SDS011;30086;57.660;12.000;2024-02-14T04:05:19;26.25;;;5.32;;
44366;SDS011;30086;57.660;12.000;2024-02-14T04:07:45;28.40;;;4.57;;
44366;SDS011;30086;57.660;12.000;2024-02-14T04:10:16;23.25;;;4.68;;
44366;SDS011;30086;57.660;12.000;2024-02-14T04:12:43;34.33;;;5.53;;
44366;SDS011;30086;57.660;12.000;2024-02-14T04:15:13;20.52;;;4.22;;
44366;SDS011;30086;57.660;12.000;2024-02-14T04:17:39;15.95;;;4.68;;
44366;SDS011;30086;57.660;12.000;2024-02-14T04:20:06;19.63;;;3.92;;
44366;SDS011;30086;57.660;12.000;2024-02-14T04:22:32;27.92;;;5.13;;
44366;SDS011;30086;57.660;12.000;2024-02-14T04:24:58;24.90;;;4.50;;
44366;SDS011;30086;57.660;12.000;2024-02-14T04:27:24;25.75;;;5.35;;
44366;SDS011;30086;57.660;12.000;2024-02-14T04:29:50;31.88;;;6.15;;
44366;SDS011;30086;57.660;12.000;2024-02-14T04:32:18;22.50;;;4.72;;
44366;SDS011;30086;57.660;12.000;2024-02-14T04:34:46;27.50;;;5.22;;
44366;SDS011;30086;57.660;12.000;2024-02-14T04:37:12;19.73;;;5.13;;
44366;SDS011;30086;57.660;12.000;2024-02-14T04:39:39;28.42;;;5.63;;
44366;SDS011;30086;57.660;12.000;2024-02-14T04:42:06;27.75;;;5.57;;
44366;SDS011;30086;57.660;12.000;2024-02-14T04:44:32;25.88;;;5.30;;
44366;SDS011;30086;57.660;12.000;2024-02-14T04:47:05;21.77;;;5.40;;
44366;SDS011;30086;57.660;12.000;2024-02-14T04:49:31;27.77;;;5.53;;
44366;SDS011;30086;57.660;12.000;2024-02-14T04:52:01;24.35;;;5.80;;
44366;SDS011;30086;57.660;12.000;2024-02-14T04:54:29;30.85;;;6.53;;
44366;SDS011;30086;57.660;12.000;2024-02-14T04:56:56;26.65;;;6.40;;
44366;SDS011;30086;57.660;12.000;2024-02-14T04:59:22;29.20;;;6.03;;
44366;SDS011;30086;57.660;12.000;2024-02-14T05:01:48;34.35;;;7.28;;
44366;SDS011;30086;57.660;12.000;2024-02-14T05:04:15;33.20;;;6.57;;
44366;SDS011;30086;57.660;12.000;2024-02-14T05:06:45;30.67;;;7.05;;
44366;SDS011;30086;57.660;12.000;2024-02-14T05:09:11;37.10;;;7.57;;
44366;SDS011;30086;57.660;12.000;2024-02-14T05:11:40;33.85;;;7.72;;
44366;SDS011;30086;57.660;12.000;2024-02-14T05:14:07;23.15;;;6.60;;
44366;SDS011;30086;57.660;12.000;2024-02-14T05:16:33;34.97;;;9.73;;
44366;SDS011;30086;57.660;12.000;2024-02-14T05:19:00;42.17;;;7.72;;
44366;SDS011;30086;57.660;12.000;2024-02-14T05:21:26;37.42;;;8.07;;
44366;SDS011;30086;57.660;12.000;2024-02-14T05:23:52;35.15;;;8.10;;
44366;SDS011;30086;57.660;12.000;2024-02-14T05:26:19;32.83;;;8.07;;
44366;SDS011;30086;57.660;12.000;2024-02-14T05:28:45;49.70;;;8.98;;
44366;SDS011;30086;57.660;12.000;2024-02-14T05:31:11;30.77;;;7.60;;
44366;SDS011;30086;57.660;12.000;2024-02-14T05:33:38;38.47;;;7.82;;
44366;SDS011;30086;57.660;12.000;2024-02-14T05:36:04;27.40;;;7.85;;
44366;SDS011;30086;57.660;12.000;2024-02-14T05:38:30;43.55;;;9.00;;
44366;SDS011;30086;57.660;12.000;2024-02-14T05:40:58;41.47;;;8.95;;
44366;SDS011;30086;57.660;12.000;2024-02-14T05:43:25;47.10;;;10.68;;
44366;SDS011;30086;57.660;12.000;2024-02-14T05:45:51;44.35;;;9.70;;
44366;SDS011;30086;57.660;12.000;2024-02-14T05:48:19;52.33;;;11.20;;
44366;SDS011;30086;57.660;12.000;2024-02-14T05:51:03;46.42;;;9.90;;
44366;SDS011;30086;57.660;12.000;2024-02-14T05:53:29;51.35;;;11.02;;
44366;SDS011;30086;57.660;12.000;2024-02-14T05:55:55;44.75;;;10.52;;
44366;SDS011;30086;57.660;12.000;2024-02-14T05:58:22;37.97;;;9.90;;
44366;SDS011;30086;57.660;12.000;2024-02-14T06:00:50;45.47;;;11.18;;
44366;SDS011;30086;57.660;12.000;2024-02-14T06:03:22;46.95;;;11.43;;
44366;SDS011;30086;57.660;12.000;2024-02-14T06:05:59;39.40;;;11.07;;
44366;SDS011;30086;57.660;12.000;2024-02-14T06:08:25;34.03;;;10.88;;
44366;SDS011;30086;57.660;12.000;2024-02-14T06:10:52;51.42;;;12.65;;
44366;SDS011;30086;57.660;12.000;2024-02-14T06:13:25;46.92;;;10.70;;
44366;SDS011;30086;57.660;12.000;2024-02-14T06:15:52;52.65;;;12.35;;
44366;SDS011;30086;57.660;12.000;2024-02-14T06:18:40;54.65;;;12.27;;
44366;SDS011;30086;57.660;12.000;2024-02-14T06:21:06;33.90;;;13.20;;
44366;SDS011;30086;57.660;12.000;2024-02-14T06:23:33;44.30;;;12.65;;
44366;SDS011;30086;57.660;12.000;2024-02-14T06:26:08;56.50;;;14.75;;
44366;SDS011;30086;57.660;12.000;2024-02-14T06:28:34;69.10;;;14.30;;
44366;SDS011;30086;57.660;12.000;2024-02-14T06:31:00;46.50;;;13.18;;
44366;SDS011;30086;57.660;12.000;2024-02-14T06:33:26;48.25;;;12.77;;
44366;SDS011;30086;57.660;12.000;2024-02-14T06:35:56;52.30;;;13.48;;
44366;SDS011;30086;57.660;12.000;2024-02-14T06:38:32;44.65;;;13.48;;
44366;SDS011;30086;57.660;12.000;2024-02-14T06:41:00;45.30;;;13.15;;
44366;SDS011;30086;57.660;12.000;2024-02-14T06:43:27;41.28;;;13.20;;
44366;SDS011;30086;57.660;12.000;2024-02-14T06:45:55;53.92;;;15.65;;
44366;SDS011;30086;57.660;12.000;2024-02-14T06:48:22;50.22;;;14.35;;
44366;SDS011;30086;57.660;12.000;2024-02-14T06:50:53;59.03;;;15.55;;
44366;SDS011;30086;57.660;12.000;2024-02-14T06:53:19;60.58;;;14.68;;
44366;SDS011;30086;57.660;12.000;2024-02-14T06:55:45;49.13;;;14.80;;
44366;SDS011;30086;57.660;12.000;2024-02-14T06:58:38;55.60;;;13.45;;
44366;SDS011;30086;57.660;12.000;2024-02-14T07:01:08;35.40;;;13.38;;
44366;SDS011;30086;57.660;12.000;2024-02-14T07:03:40;48.17;;;12.60;;
44366;SDS011;30086;57.660;12.000;2024-02-14T07:06:26;44.05;;;13.43;;
44366;SDS011;30086;57.660;12.000;2024-02-14T07:08:54;48.35;;;13.65;;
44366;SDS011;30086;57.660;12.000;2024-02-14T07:11:20;45.58;;;14.15;;
44366;SDS011;30086;57.660;12.000;2024-02-14T07:13:47;39.83;;;12.27;;
44366;SDS011;30086;57.660;12.000;2024-02-14T07:16:13;39.58;;;12.73;;
44366;SDS011;30086;57.660;12.000;2024-02-14T07:18:39;36.72;;;13.27;;
44366;SDS011;30086;57.660;12.000;2024-02-14T07:21:06;41.13;;;10.85;;
44366;SDS011;30086;57.660;12.000;2024-02-14T07:23:34;36.67;;;11.50;;
44366;SDS011;30086;57.660;12.000;2024-02-14T07:26:01;35.30;;;11.23;;
44366;SDS011;30086;57.660;12.000;2024-02-14T07:28:27;37.20;;;11.63;;
44366;SDS011;30086;57.660;12.000;2024-02-14T07:30:57;35.38;;;11.00;;
44366;SDS011;30086;57.660;12.000;2024-02-14T07:33:24;28.35;;;10.48;;
44366;SDS011;30086;57.660;12.000;2024-02-14T07:35:50;29.95;;;11.73;;
44366;SDS011;30086;57.660;12.000;2024-02-14T07:38:16;32.33;;;11.07;;
44366;SDS011;30086;57.660;12.000;2024-02-14T07:40:43;29.35;;;10.43;;
44366;SDS011;30086;57.660;12.000;2024-02-14T07:43:13;24.83;;;10.18;;
44366;SDS011;30086;57.660;12.000;2024-02-14T07:45:39;32.38;;;9.57;;
44366;SDS011;30086;57.660;12.000;2024-02-14T07:48:07;30.23;;;9.20;;
44366;SDS011;30086;57.660;12.000;2024-02-14T07:50:34;23.27;;;9.27;;
44366;SDS011;30086;57.660;12.000;2024-02-14T07:53:05;22.35;;;9.98;;
44366;SDS011;30086;57.660;12.000;2024-02-14T07:55:33;23.38;;;9.27;;
44366;SDS011;30086;57.660;12.000;2024-02-14T07:57:59;24.65;;;9.50;;
44366;SDS011;30086;57.660;12.000;2024-02-14T08:00:26;22.10;;;9.38;;
44366;SDS011;30086;57.660;12.000;2024-02-14T08:02:52;22.80;;;8.45;;
44366;SDS011;30086;57.660;12.000;2024-02-14T08:05:21;22.00;;;9.45;;
44366;SDS011;30086;57.660;12.000;2024-02-14T08:08:11;21.15;;;9.75;;
44366;SDS011;30086;57.660;12.000;2024-02-14T08:10:49;20.63;;;9.20;;
44366;SDS011;30086;57.660;12.000;2024-02-14T08:13:15;25.02;;;8.77;;
44366;SDS011;30086;57.660;12.000;2024-02-14T08:15:42;20.52;;;8.13;;
44366;SDS011;30086;57.660;12.000;2024-02-14T08:18:11;20.08;;;9.00;;
44366;SDS011;30086;57.660;12.000;2024-02-14T08:20:39;17.83;;;7.35;;
44366;SDS011;30086;57.660;12.000;2024-02-14T08:23:06;16.38;;;7.85;;
44366;SDS011;30086;57.660;12.000;2024-02-14T08:25:34;19.88;;;7.93;;
44366;SDS011;30086;57.660;12.000;2024-02-14T08:28:01;15.70;;;7.28;;
44366;SDS011;30086;57.660;12.000;2024-02-14T08:30:33;16.42;;;7.50;;
44366;SDS011;30086;57.660;12.000;2024-02-14T08:33:19;20.13;;;7.28;;
44366;SDS011;30086;57.660;12.000;2024-02-14T08:35:45;15.40;;;7.40;;
44366;SDS011;30086;57.660;12.000;2024-02-14T08:38:13;17.05;;;8.15;;
44366;SDS011;30086;57.660;12.000;2024-02-14T08:40:39;13.77;;;7.57;;
44366;SDS011;30086;57.660;12.000;2024-02-14T08:43:06;16.55;;;7.55;;
44366;SDS011;30086;57.660;12.000;2024-02-14T08:45:40;14.02;;;7.50;;
44366;SDS011;30086;57.660;12.000;2024-02-14T08:48:33;11.68;;;6.43;;
44366;SDS011;30086;57.660;12.000;2024-02-14T08:51:01;15.60;;;7.53;;
44366;SDS011;30086;57.660;12.000;2024-02-14T08:53:31;15.48;;;6.60;;
44366;SDS011;30086;57.660;12.000;2024-02-14T08:55:59;15.73;;;7.57;;
44366;SDS011;30086;57.660;12.000;2024-02-14T08:58:25;16.10;;;6.50;;
44366;SDS011;30086;57.660;12.000;2024-02-14T09:00:51;13.32;;;6.88;;
44366;SDS011;30086;57.660;12.000;2024-02-14T09:03:19;13.77;;;7.65;;
44366;SDS011;30086;57.660;12.000;2024-02-14T09:05:48;11.80;;;6.47;;
44366;SDS011;30086;57.660;12.000;2024-02-14T09:08:18;15.07;;;7.20;;
44366;SDS011;30086;57.660;12.000;2024-02-14T09:10:53;12.02;;;7.10;;
44366;SDS011;30086;57.660;12.000;2024-02-14T09:13:19;14.77;;;6.97;;
44366;SDS011;30086;57.660;12.000;2024-02-14T09:15:45;12.07;;;6.28;;
44366;SDS011;30086;57.660;12.000;2024-02-14T09:18:13;11.65;;;6.50;;
44366;SDS011;30086;57.660;12.000;2024-02-14T09:21:01;10.10;;;6.70;;
44366;SDS011;30086;57.660;12.000;2024-02-14T09:23:32;10.80;;;6.30;;
44366;SDS011;30086;57.660;12.000;2024-02-14T09:25:58;11.35;;;6.28;;
44366;SDS011;30086;57.660;12.000;2024-02-14T09:28:32;9.68;;;5.60;;
44366;SDS011;30086;57.660;12.000;2024-02-14T09:31:00;9.40;;;5.50;;
44366;SDS011;30086;57.660;12.000;2024-02-14T09:33:26;9.05;;;5.50;;
44366;SDS011;30086;57.660;12.000;2024-02-14T09:35:56;14.45;;;6.32;;
44366;SDS011;30086;57.660;12.000;2024-02-14T09:38:29;9.82;;;6.00;;
44366;SDS011;30086;57.660;12.000;2024-02-14T09:40:55;11.10;;;5.80;;
44366;SDS011;30086;57.660;12.000;2024-02-14T09:43:28;8.75;;;6.05;;
44366;SDS011;30086;57.660;12.000;2024-02-14T09:46:21;8.93;;;5.30;;
44366;SDS011;30086;57.660;12.000;2024-02-14T09:49:08;8.25;;;5.10;;
44366;SDS011;30086;57.660;12.000;2024-02-14T09:51:38;8.05;;;5.10;;
44366;SDS011;30086;57.660;12.000;2024-02-14T09:54:39;9.77;;;4.90;;
44366;SDS011;30086;57.660;12.000;2024-02-14T09:57:09;7.32;;;4.65;;
44366;SDS011;30086;57.660;12.000;2024-02-14T09:59:56;7.30;;;4.25;;
44366;SDS011;30086;57.660;12.000;2024-02-14T10:02:23;10.98;;;5.22;;
44366;SDS011;30086;57.660;12.000;2024-02-14T10:05:09;6.28;;;4.20;;
44366;SDS011;30086;57.660;12.000;2024-02-14T10:07:41;6.70;;;4.18;;
44366;SDS011;30086;57.660;12.000;2024-02-14T10:10:17;8.80;;;5.53;;
44366;SDS011;30086;57.660;12.000;2024-02-14T10:12:43;7.80;;;5.35;;
44366;SDS011;30086;57.660;12.000;2024-02-14T10:15:11;8.57;;;5.15;;
44366;SDS011;30086;57.660;12.000;2024-02-14T10:17:41;8.63;;;4.93;;
44366;SDS011;30086;57.660;12.000;2024-02-14T10:20:11;8.75;;;5.47;;
44366;SDS011;30086;57.660;12.000;2024-02-14T10:22:40;10.55;;;5.50;;
44366;SDS011;30086;57.660;12.000;2024-02-14T10:25:10;8.43;;;5.80;;
44366;SDS011;30086;57.660;12.000;2024-02-14T10:27:37;9.77;;;6.15;;
44366;SDS011;30086;57.660;12.000;2024-02-14T10:30:07;9.98;;;6.10;;
44366;SDS011;30086;57.660;12.000;2024-02-14T10:32:50;11.07;;;6.35;;
44366;SDS011;30086;57.660;12.000;2024-02-14T10:35:16;12.80;;;6.65;;
44366;SDS011;30086;57.660;12.000;2024-02-14T10:37:44;9.88;;;6.03;;
44366;SDS011;30086;57.660;12.000;2024-02-14T10:40:10;11.35;;;6.45;;
44366;SDS011;30086;57.660;12.000;2024-02-14T10:42:36;11.57;;;6.57;;
44366;SDS011;30086;57.660;12.000;2024-02-14T10:45:02;12.98;;;6.88;;
44366;SDS011;30086;57.660;12.000;2024-02-14T10:47:31;14.35;;;6.72;;
44366;SDS011;30086;57.660;12.000;2024-02-14T10:50:00;12.57;;;7.07;;
44366;SDS011;30086;57.660;12.000;2024-02-14T10:52:32;14.40;;;7.13;;
44366;SDS011;30086;57.660;12.000;2024-02-14T10:55:06;12.45;;;7.13;;
44366;SDS011;30086;57.660;12.000;2024-02-14T10:57:36;12.35;;;6.00;;
44366;SDS011;30086;57.660;12.000;2024-02-14T11:00:08;11.88;;;6.85;;
44366;SDS011;30086;57.660;12.000;2024-02-14T11:02:40;13.13;;;7.03;;
44366;SDS011;30086;57.660;12.000;2024-02-14T11:05:12;13.95;;;7.53;;
44366;SDS011;30086;57.660;12.000;2024-02-14T11:07:56;15.20;;;7.60;;
44366;SDS011;30086;57.660;12.000;2024-02-14T11:10:22;15.63;;;7.65;;
44366;SDS011;30086;57.660;12.000;2024-02-14T11:12:49;17.00;;;7.80;;
44366;SDS011;30086;57.660;12.000;2024-02-14T11:15:17;15.20;;;7.20;;
44366;SDS011;30086;57.660;12.000;2024-02-14T11:17:51;17.48;;;8.18;;
44366;SDS011;30086;57.660;12.000;2024-02-14T11:20:32;17.38;;;8.18;;
44366;SDS011;30086;57.660;12.000;2024-02-14T11:23:04;14.73;;;8.18;;
44366;SDS011;30086;57.660;12.000;2024-02-14T11:25:46;19.13;;;8.65;;
44366;SDS011;30086;57.660;12.000;2024-02-14T11:28:19;15.27;;;8.57;;
44366;SDS011;30086;57.660;12.000;2024-02-14T11:30:48;12.57;;;7.07;;
44366;SDS011;30086;57.660;12.000;2024-02-14T11:33:24;13.43;;;7.43;;
44366;SDS011;30086;57.660;12.000;2024-02-14T11:35:53;13.27;;;7.35;;
44366;SDS011;30086;57.660;12.000;2024-02-14T11:38:23;15.18;;;7.30;;
44366;SDS011;30086;57.660;12.000;2024-02-14T11:41:18;12.48;;;7.40;;
44366;SDS011;30086;57.660;12.000;2024-02-14T11:43:51;14.45;;;7.95;;
44366;SDS011;30086;57.660;12.000;2024-02-14T11:46:17;13.68;;;7.43;;
44366;SDS011;30086;57.660;12.000;2024-02-14T11:48:44;14.35;;;7.55;;
44366;SDS011;30086;57.660;12.000;2024-02-14T11:51:14;13.07;;;7.65;;
44366;SDS011;30086;57.660;12.000;2024-02-14T11:53:41;11.02;;;6.63;;
44366;SDS011;30086;57.660;12.000;2024-02-14T11:56:07;14.63;;;7.68;;
44366;SDS011;30086;57.660;12.000;2024-02-14T11:58:34;12.65;;;7.25;;
44366;SDS011;30086;57.660;12.000;2024-02-14T12:01:05;11.27;;;6.80;;
44366;SDS011;30086;57.660;12.000;2024-02-14T12:03:40;10.93;;;7.40;;
44366;SDS011;30086;57.660;12.000;2024-02-14T12:06:27;12.15;;;6.63;;
44366;SDS011;30086;57.660;12.000;2024-02-14T12:09:01;15.23;;;7.30;;
44366;SDS011;30086;57.660;12.000;2024-02-14T12:11:53;11.70;;;7.10;;
44366;SDS011;30086;57.660;12.000;2024-02-14T12:14:23;12.00;;;6.53;;
44366;SDS011;30086;57.660;12.000;2024-02-14T12:17:03;12.43;;;7.18;;
44366;SDS011;30086;57.660;12.000;2024-02-14T12:20:09;12.45;;;6.78;;
44366;SDS011;30086;57.660;12.000;2024-02-14T12:22:56;14.52;;;8.05;;
44366;SDS011;30086;57.660;12.000;2024-02-14T12:25:42;12.15;;;6.53;;
44366;SDS011;30086;57.660;12.000;2024-02-14T12:28:17;11.50;;;6.90;;
44366;SDS011;30086;57.660;12.000;2024-02-14T12:30:50;11.07;;;6.90;;
44366;SDS011;30086;57.660;12.000;2024-02-14T12:33:38;11.63;;;7.03;;
44366;SDS011;30086;57.660;12.000;2024-02-14T12:36:05;12.43;;;7.65;;
44366;SDS011;30086;57.660;12.000;2024-02-14T12:39:05;11.80;;;7.43;;
44366;SDS011;30086;57.660;12.000;2024-02-14T12:41:53;13.35;;;7.88;;
44366;SDS011;30086;57.660;12.000;2024-02-14T12:44:39;12.18;;;7.18;;
44366;SDS011;30086;57.660;12.000;2024-02-14T12:47:11;11.77;;;7.70;;
44366;SDS011;30086;57.660;12.000;2024-02-14T12:49:37;14.48;;;7.90;;
44366;SDS011;30086;57.660;12.000;2024-02-14T12:52:10;13.35;;;7.97;;
44366;SDS011;30086;57.660;12.000;2024-02-14T12:54:38;13.77;;;7.30;;
44366;SDS011;30086;57.660;12.000;2024-02-14T12:57:04;13.93;;;7.65;;
44366;SDS011;30086;57.660;12.000;2024-02-14T12:59:30;15.13;;;8.35;;
44366;SDS011;30086;57.660;12.000;2024-02-14T13:01:56;14.90;;;8.93;;
44366;SDS011;30086;57.660;12.000;2024-02-14T13:04:22;14.65;;;9.02;;
44366;SDS011;30086;57.660;12.000;2024-02-14T13:06:54;13.77;;;8.00;;
44366;SDS011;30086;57.660;12.000;2024-02-14T13:09:20;16.30;;;8.82;;
44366;SDS011;30086;57.660;12.000;2024-02-14T13:11:49;15.88;;;8.80;;
44366;SDS011;30086;57.660;12.000;2024-02-14T13:14:17;17.67;;;9.00;;
44366;SDS011;30086;57.660;12.000;2024-02-14T13:16:43;22.70;;;10.63;;
44366;SDS011;30086;57.660;12.000;2024-02-14T13:19:13;15.80;;;8.40;;
44366;SDS011;30086;57.660;12.000;2024-02-14T13:21:48;19.40;;;9.15;;
44366;SDS011;30086;57.660;12.000;2024-02-14T13:24:15;21.85;;;9.63;;
44366;SDS011;30086;57.660;12.000;2024-02-14T13:26:44;20.70;;;9.50;;
44366;SDS011;30086;57.660;12.000;2024-02-14T13:29:11;18.88;;;9.52;;
44366;SDS011;30086;57.660;12.000;2024-02-14T13:31:43;26.75;;;10.40;;
44366;SDS011;30086;57.660;12.000;2024-02-14T13:34:29;20.23;;;9.57;;
44366;SDS011;30086;57.660;12.000;2024-02-14T13:36:55;24.13;;;10.48;;
44366;SDS011;30086;57.660;12.000;2024-02-14T13:39:38;25.48;;;10.48;;
44366;SDS011;30086;57.660;12.000;2024-02-14T13:42:26;33.47;;;11.13;;
44366;SDS011;30086;57.660;12.000;2024-02-14T13:44:53;36.92;;;10.07;;
44366;SDS011;30086;57.660;12.000;2024-02-14T13:47:20;31.83;;;9.85;;
44366;SDS011;30086;57.660;12.000;2024-02-14T13:49:49;35.80;;;11.00;;
44366;SDS011;30086;57.660;12.000;2024-02-14T13:52:24;39.35;;;11.57;;
44366;SDS011;30086;57.660;12.000;2024-02-14T13:55:15;46.45;;;11.43;;
44366;SDS011;30086;57.660;12.000;2024-02-14T13:57:41;37.45;;;9.65;;
44366;SDS011;30086;57.660;12.000;2024-02-14T14:00:27;37.40;;;10.23;;
44366;SDS011;30086;57.660;12.000;2024-02-14T14:03:06;54.75;;;11.30;;
44366;SDS011;30086;57.660;12.000;2024-02-14T14:05:32;54.22;;;11.30;;
44366;SDS011;30086;57.660;12.000;2024-02-14T14:08:15;60.00;;;10.70;;
44366;SDS011;30086;57.660;12.000;2024-02-14T14:10:42;58.75;;;11.52;;
44366;SDS011;30086;57.660;12.000;2024-02-14T14:13:11;50.97;;;10.10;;
44366;SDS011;30086;57.660;12.000;2024-02-14T14:15:49;60.22;;;11.75;;
44366;SDS011;30086;57.660;12.000;2024-02-14T14:18:20;105.15;;;13.88;;
44366;SDS011;30086;57.660;12.000;2024-02-14T14:20:52;116.10;;;13.88;;
44366;SDS011;30086;57.660;12.000;2024-02-14T14:23:38;90.13;;;13.40;;
44366;SDS011;30086;57.660;12.000;2024-02-14T14:26:13;69.25;;;12.23;;
44366;SDS011;30086;57.660;12.000;2024-02-14T14:28:40;67.13;;;12.52;;
44366;SDS011;30086;57.660;12.000;2024-02-14T14:31:10;80.85;;;12.60;;
44366;SDS011;30086;57.660;12.000;2024-02-14T14:33:36;65.90;;;12.90;;
44366;SDS011;30086;57.660;12.000;2024-02-14T14:36:09;80.25;;;13.05;;
44366;SDS011;30086;57.660;12.000;2024-02-14T14:38:35;77.72;;;12.48;;